Huvudsida
METAR-TAF:

METAR-TAF

Flygplatser :

Björneborgs flygplats

Björneborg, Finland

latitud: 61-28N, longitud: 021-48E, höjd: 13 m

Aktuellt väderrapport

Denna rapport gjordes för 38 minuter sedan, klockan 11:20 UTC
Vind 4 kt från nord, varierande mellan nord och nordost
Temperatur 1°C
Fuktighet 93%
Tryck 1017 hPa
Sikt 10 km eller mer

METAR: EFPO 111120Z AUTO 01004KT 350V050 9999 OVC006/// 01/M00 Q1017

Tid: 13:58 (11:58 UTC)

Väderprognos

Denna rapport gjordes för 28 minuter sedan, klockan 11:30 UTC
Prognos gäller från 11 kl. 12 UTC till 11 kl. 15 UTC
Vind 5 kt från nordost
Sikt 10 km eller mer
Mulet på en höjd av 600 ft
Sannolikhet 40% :
Temporärt
från 11 kl. 12 UTC till 11 kl. 15 UTC
Sikt: 7000 m
Brutna moln på en höjd av 400 ft

TAF: EFPO 111130Z 1112/1115 05005KT 9999 OVC006 PROB40 TEMPO 1112/1115 7000 BKN004

Aktuella väderrapporter och prognoser från 4000 flygplatser (METAR- och TAF-rapporter).

De tillgängliga stationerna syns som gula och röda prickar på kartan.

För musen över prickarna för att se namnen på stationerna.

Klicka sedan för att få väderrapporter och prognoser.

För att ändra kartan: Klicka på de gröna knapparna med ett svart kors på för att zooma in; den gröna knappen med ett streck på för att zooma ut; eller på de gröna pilarna för angränsande kartor.


METAR-TAF: